createdAt,value
2023-12-09T00:04:51.330Z,20.48
2023-12-09T00:09:53.987Z,27.48
2023-12-09T00:14:56.663Z,22.23
2023-12-09T00:20:00.632Z,35.83
2023-12-09T00:25:03.651Z,35.50
2023-12-09T00:30:09.637Z,29.00
2023-12-09T00:35:15.203Z,31.95
2023-12-09T00:40:20.683Z,19.80
2023-12-09T00:45:23.540Z,24.98
2023-12-09T00:50:26.280Z,23.55
2023-12-09T00:55:28.906Z,21.63
2023-12-09T01:00:31.807Z,28.20
2023-12-09T01:05:34.497Z,20.90
2023-12-09T01:10:37.165Z,21.40
2023-12-09T01:15:40.227Z,19.40
2023-12-09T01:20:43.102Z,22.13
2023-12-09T01:25:45.943Z,18.30
2023-12-09T01:30:48.702Z,25.42
2023-12-09T01:35:51.343Z,22.00
2023-12-09T01:40:55.690Z,21.70
2023-12-09T01:46:08.954Z,16.35
2023-12-09T01:51:12.787Z,30.45
2023-12-09T01:56:17.990Z,22.48
2023-12-09T02:01:20.794Z,27.50
2023-12-09T02:06:23.545Z,22.05
2023-12-09T02:11:45.267Z,21.80
2023-12-09T02:17:21.714Z,19.10
2023-12-09T02:22:24.683Z,25.52
2023-12-09T02:27:49.167Z,24.50
2023-12-09T02:32:55.604Z,21.83
2023-12-09T02:37:59.933Z,19.38
2023-12-09T02:43:04.381Z,21.98
2023-12-09T02:48:07.722Z,19.60
2023-12-09T02:53:10.539Z,17.60
2023-12-09T02:58:13.859Z,21.35
2023-12-09T03:03:17.027Z,23.75
2023-12-09T03:08:19.884Z,20.02
2023-12-09T03:13:22.525Z,16.98
2023-12-09T03:18:25.384Z,23.25
2023-12-09T03:23:28.225Z,16.70
2023-12-09T03:28:30.889Z,18.02
2023-12-09T03:33:33.708Z,20.92
2023-12-09T03:38:37.222Z,20.65
2023-12-09T03:43:39.953Z,13.70
2023-12-09T03:48:42.710Z,11.95
2023-12-09T03:53:45.974Z,14.27
2023-12-09T03:58:49.059Z,10.60
2023-12-09T04:03:52.410Z,10.63
2023-12-09T04:08:55.658Z,6.72
2023-12-09T04:13:58.538Z,7.57
2023-12-09T04:19:01.694Z,9.88
2023-12-09T04:24:04.912Z,11.02
2023-12-09T04:29:08.218Z,7.63
2023-12-09T04:34:11.084Z,7.53
2023-12-09T04:39:13.873Z,10.77
2023-12-09T04:44:16.534Z,5.63
2023-12-09T04:49:19.690Z,8.93
2023-12-09T04:54:22.634Z,6.72
2023-12-09T04:59:25.612Z,6.57
2023-12-09T05:04:28.874Z,8.45
2023-12-09T05:09:31.905Z,7.43
2023-12-09T05:14:34.893Z,6.47
2023-12-09T05:19:37.717Z,6.60
2023-12-09T05:24:40.631Z,7.18
2023-12-09T05:29:44.814Z,8.27
2023-12-09T05:34:47.693Z,7.60
2023-12-09T05:39:50.352Z,6.78
2023-12-09T05:44:53.335Z,7.28
2023-12-09T05:49:56.269Z,8.35
2023-12-09T05:54:59.086Z,7.72
2023-12-09T06:00:01.974Z,9.93
2023-12-09T06:05:07.833Z,6.03
2023-12-09T06:10:11.446Z,7.75
2023-12-09T06:15:17.763Z,8.80
2023-12-09T06:20:20.739Z,12.68
2023-12-09T06:25:23.648Z,7.28
2023-12-09T06:30:26.726Z,10.05
2023-12-09T06:35:29.616Z,7.32
2023-12-09T06:40:38.280Z,8.38
2023-12-09T06:45:41.337Z,7.70
2023-12-09T06:50:44.922Z,8.43
2023-12-09T06:55:47.868Z,8.68
2023-12-09T07:00:50.864Z,9.82
2023-12-09T07:05:53.929Z,8.00
2023-12-09T07:11:01.014Z,12.20
2023-12-09T07:16:04.720Z,9.35
2023-12-09T07:21:08.026Z,12.30
2023-12-09T07:26:14.548Z,8.70
2023-12-09T07:31:18.382Z,7.38
2023-12-09T07:36:21.538Z,13.38
2023-12-09T07:41:24.729Z,12.88
2023-12-09T07:46:27.588Z,9.38
2023-12-09T07:51:30.758Z,8.52
2023-12-09T07:56:33.538Z,8.50
2023-12-09T08:01:36.970Z,8.13
2023-12-09T08:06:40.321Z,8.27
2023-12-09T08:11:43.376Z,11.45
2023-12-09T08:16:46.938Z,10.73
2023-12-09T08:21:49.769Z,11.05
2023-12-09T08:26:53.624Z,12.68
2023-12-09T08:31:58.560Z,10.93
2023-12-09T08:42:04.007Z,8.82
2023-12-09T08:47:06.996Z,10.00
2023-12-09T08:52:09.971Z,10.73
2023-12-09T08:57:12.893Z,14.98
2023-12-09T09:02:15.949Z,14.30
2023-12-09T09:07:19.289Z,10.88
2023-12-09T09:12:22.493Z,12.80
2023-12-09T09:17:26.515Z,13.75
2023-12-09T09:22:30.894Z,14.68
2023-12-09T09:27:33.945Z,11.88
2023-12-09T09:32:37.440Z,13.90
2023-12-09T09:37:40.307Z,13.43
2023-12-09T09:42:51.824Z,12.15
2023-12-09T09:48:06.088Z,9.57
2023-12-09T09:53:44.908Z,12.63
2023-12-09T09:58:51.621Z,10.75
2023-12-09T10:03:58.479Z,10.52
2023-12-09T10:09:03.149Z,14.02
2023-12-09T10:14:31.431Z,15.23
2023-12-09T10:19:44.214Z,13.38
2023-12-09T10:24:53.033Z,13.80
2023-12-09T10:30:08.528Z,15.55
2023-12-09T10:35:12.622Z,14.18
2023-12-09T10:40:26.987Z,12.73
2023-12-09T10:50:45.335Z,12.02
2023-12-09T10:56:07.524Z,9.85
2023-12-09T11:01:13.479Z,12.88
2023-12-09T11:06:19.038Z,12.57
2023-12-09T11:11:21.947Z,14.30
2023-12-09T11:16:24.740Z,15.82
2023-12-09T11:21:33.226Z,15.38
2023-12-09T11:26:38.179Z,16.88
2023-12-09T11:31:50.200Z,17.42
2023-12-09T11:36:55.329Z,18.27
2023-12-09T11:42:00.810Z,18.35
2023-12-09T11:47:06.200Z,13.43
2023-12-09T11:52:09.677Z,16.08
2023-12-09T11:57:12.856Z,10.00
2023-12-09T12:02:16.958Z,16.52
2023-12-09T12:07:19.908Z,15.65
2023-12-09T12:12:23.002Z,13.73
2023-12-09T12:17:26.372Z,14.13
2023-12-09T12:22:29.444Z,17.30
2023-12-09T12:27:36.982Z,13.00
2023-12-09T12:32:39.954Z,13.85
2023-12-09T12:37:42.877Z,17.40
2023-12-09T12:42:45.778Z,17.23
2023-12-09T12:47:49.567Z,10.38
2023-12-09T12:52:52.538Z,14.13
2023-12-09T12:57:56.990Z,14.05
2023-12-09T13:03:00.000Z,9.98
2023-12-09T13:08:02.767Z,12.70
2023-12-09T13:13:07.159Z,13.30
2023-12-09T13:18:10.118Z,8.70
2023-12-09T13:23:13.779Z,12.32
2023-12-09T13:28:16.744Z,15.30
2023-12-09T13:33:19.535Z,8.88
2023-12-09T13:38:22.290Z,13.13
2023-12-09T13:43:25.062Z,13.80
2023-12-09T13:48:27.882Z,10.90
2023-12-09T13:53:30.981Z,14.38
2023-12-09T13:58:34.054Z,13.90
2023-12-09T14:03:37.276Z,12.27
2023-12-09T14:08:40.031Z,16.60
2023-12-09T14:13:42.949Z,10.63
2023-12-09T14:18:45.795Z,8.05
2023-12-09T14:23:48.613Z,12.43
2023-12-09T14:28:51.427Z,10.48
2023-12-09T14:34:00.980Z,14.75
2023-12-09T14:39:11.144Z,10.63
2023-12-09T14:44:29.862Z,9.95
2023-12-09T14:49:38.500Z,12.75
2023-12-09T14:54:50.576Z,13.00
2023-12-09T14:59:57.472Z,6.93
2023-12-09T15:05:06.079Z,11.82
2023-12-09T15:10:28.230Z,16.15
2023-12-09T15:15:32.128Z,15.13
2023-12-09T15:20:35.500Z,12.80
2023-12-09T15:25:39.476Z,10.13
2023-12-09T15:30:42.287Z,22.65
2023-12-09T15:35:45.028Z,14.38
2023-12-09T15:40:48.292Z,16.48
2023-12-09T15:45:52.168Z,18.30
2023-12-09T15:50:55.934Z,16.40
2023-12-09T15:55:58.846Z,14.30
2023-12-09T16:01:03.795Z,12.98
2023-12-09T16:06:07.791Z,16.75
2023-12-09T16:11:10.563Z,15.35
2023-12-09T16:16:14.913Z,15.73
2023-12-09T16:21:17.791Z,16.02
2023-12-09T16:26:21.913Z,19.35
2023-12-09T16:31:24.789Z,11.15
2023-12-09T16:36:28.454Z,15.90
2023-12-09T16:41:31.558Z,14.55
2023-12-09T16:46:35.683Z,20.08
2023-12-09T16:51:38.824Z,15.38
2023-12-09T16:56:41.933Z,12.55
2023-12-09T17:01:48.285Z,15.68
2023-12-09T17:07:06.442Z,15.35
2023-12-09T17:12:13.741Z,11.60
2023-12-09T17:17:16.680Z,15.27
2023-12-09T17:22:19.435Z,13.68
2023-12-09T17:27:22.294Z,15.48
2023-12-09T17:32:25.257Z,18.60
2023-12-09T17:37:28.406Z,13.70
2023-12-09T17:42:31.489Z,14.73
2023-12-09T17:47:34.940Z,13.02
2023-12-09T17:52:39.184Z,17.67
2023-12-09T17:57:42.476Z,14.43
2023-12-09T18:02:45.979Z,12.80
2023-12-09T18:07:49.114Z,16.27
2023-12-09T18:12:52.183Z,25.17
2023-12-09T18:17:55.274Z,14.35
2023-12-09T18:22:59.897Z,15.48
2023-12-09T18:28:04.130Z,19.60
2023-12-09T18:33:07.338Z,18.02
2023-12-09T18:38:14.790Z,13.82
2023-12-09T18:43:17.999Z,20.52
2023-12-09T18:48:23.339Z,18.77
2023-12-09T18:53:26.253Z,17.92
2023-12-09T18:58:29.796Z,23.08
2023-12-09T19:03:32.907Z,16.85
2023-12-09T19:08:36.702Z,25.45
2023-12-09T19:13:46.088Z,20.75
2023-12-09T19:18:49.567Z,20.58
2023-12-09T19:23:58.054Z,17.85
2023-12-09T19:29:05.654Z,14.90
2023-12-09T19:34:08.888Z,17.65
2023-12-09T19:39:12.978Z,20.08
2023-12-09T19:44:16.517Z,11.90
2023-12-09T19:49:20.685Z,14.20
2023-12-09T19:54:27.639Z,15.57
2023-12-09T19:59:32.677Z,17.20
2023-12-09T20:09:38.752Z,15.10
2023-12-09T20:14:42.205Z,13.80
2023-12-09T20:19:45.431Z,14.60
2023-12-09T20:24:49.787Z,14.45
2023-12-09T20:29:56.816Z,11.27
2023-12-09T20:35:04.359Z,19.23
2023-12-09T20:40:10.048Z,15.32
2023-12-09T20:45:14.817Z,14.50
2023-12-09T20:50:18.415Z,11.82
2023-12-09T20:55:21.586Z,11.68
2023-12-09T21:00:25.142Z,8.85
2023-12-09T21:05:29.116Z,13.98
2023-12-09T21:10:32.269Z,12.75
2023-12-09T21:15:35.052Z,17.55
2023-12-09T21:20:39.887Z,10.40
2023-12-09T21:25:43.191Z,10.48
2023-12-09T21:30:48.988Z,9.45
2023-12-09T21:35:52.547Z,10.70
2023-12-09T21:40:55.422Z,12.80
2023-12-09T21:45:58.820Z,15.32
2023-12-09T21:51:03.363Z,11.55
2023-12-09T21:56:07.766Z,13.15
2023-12-09T22:01:11.573Z,11.13
2023-12-09T22:06:15.070Z,13.27
2023-12-09T22:11:18.670Z,8.25
2023-12-09T22:16:21.879Z,14.73
2023-12-09T22:21:24.710Z,13.32
2023-12-09T22:26:27.497Z,7.50
2023-12-09T22:31:30.744Z,13.38
2023-12-09T22:36:34.139Z,8.32
2023-12-09T22:41:37.054Z,8.48
2023-12-09T22:46:39.900Z,11.32
2023-12-09T22:51:43.162Z,8.63
2023-12-09T22:56:46.380Z,10.40
2023-12-09T23:01:49.230Z,8.63
2023-12-09T23:06:51.908Z,12.20
2023-12-09T23:11:54.652Z,9.73
2023-12-09T23:16:57.494Z,8.63
2023-12-09T23:22:00.339Z,9.90
2023-12-09T23:27:04.187Z,4.82
2023-12-09T23:32:09.035Z,7.93
2023-12-09T23:37:12.043Z,7.55
2023-12-09T23:42:14.817Z,10.45
2023-12-09T23:47:17.582Z,8.20
2023-12-09T23:52:20.338Z,8.85
2023-12-09T23:57:23.459Z,7.35
